createdAt,value
2022-12-11T00:00:45.332Z,69.37
2022-12-11T00:03:15.816Z,69.28
2022-12-11T00:05:42.769Z,69.25
2022-12-11T00:08:09.211Z,68.87
2022-12-11T00:10:37.952Z,69.20
2022-12-11T00:13:05.266Z,69.28
2022-12-11T00:15:32.013Z,68.95
2022-12-11T00:17:58.413Z,68.87
2022-12-11T00:20:24.836Z,69.01
2022-12-11T00:22:51.268Z,68.84
2022-12-11T00:25:17.728Z,68.23
2022-12-11T00:27:45.945Z,68.69
2022-12-11T00:30:12.796Z,67.66
2022-12-11T00:32:39.184Z,67.90
2022-12-11T00:35:05.707Z,68.11
2022-12-11T00:37:32.254Z,68.39
2022-12-11T00:39:58.789Z,69.01
2022-12-11T00:42:25.236Z,69.23
2022-12-11T00:44:52.156Z,68.91
2022-12-11T00:47:18.555Z,69.34
2022-12-11T00:49:49.544Z,70.10
2022-12-11T00:52:17.934Z,70.34
2022-12-11T00:54:44.685Z,70.66
2022-12-11T00:57:11.165Z,71.14
2022-12-11T00:59:37.714Z,71.57
2022-12-11T01:02:04.117Z,71.57
2022-12-11T01:04:30.557Z,71.61
2022-12-11T01:06:56.984Z,71.70
2022-12-11T01:09:42.161Z,71.99
2022-12-11T01:12:08.587Z,71.66
2022-12-11T01:14:35.007Z,71.29
2022-12-11T01:17:01.485Z,71.33
2022-12-11T01:19:28.492Z,72.10
2022-12-11T01:21:54.935Z,71.78
2022-12-11T01:24:21.423Z,71.38
2022-12-11T01:26:47.821Z,71.30
2022-12-11T01:29:14.337Z,71.24
2022-12-11T01:31:41.271Z,71.18
2022-12-11T01:34:07.712Z,71.26
2022-12-11T01:36:34.134Z,71.26
2022-12-11T01:39:00.583Z,71.40
2022-12-11T01:41:27.011Z,71.60
2022-12-11T01:44:06.809Z,71.65
2022-12-11T01:46:35.668Z,71.57
2022-12-11T01:49:05.698Z,71.67
2022-12-11T01:51:33.654Z,71.31
2022-12-11T01:54:03.435Z,70.89
2022-12-11T01:56:31.191Z,71.66
2022-12-11T01:59:00.343Z,71.43
2022-12-11T02:01:36.999Z,71.31
2022-12-11T02:04:04.141Z,71.18
2022-12-11T02:06:39.036Z,71.00
2022-12-11T02:09:07.818Z,70.95
2022-12-11T02:12:12.937Z,71.05
2022-12-11T02:14:43.057Z,71.64
2022-12-11T02:17:28.252Z,70.98
2022-12-11T02:20:13.262Z,70.70
2022-12-11T02:22:42.598Z,70.78
2022-12-11T02:25:24.176Z,71.41
2022-12-11T02:27:57.242Z,71.36
2022-12-11T02:30:24.167Z,71.39
2022-12-11T02:32:55.209Z,71.97
2022-12-11T02:35:38.078Z,71.38
2022-12-11T02:38:09.050Z,71.17
2022-12-11T02:40:38.031Z,72.16
2022-12-11T02:43:07.470Z,71.43
2022-12-11T02:45:34.600Z,72.21
2022-12-11T02:48:04.194Z,72.18
2022-12-11T02:50:30.749Z,72.59
2022-12-11T02:52:57.668Z,72.30
2022-12-11T02:55:27.105Z,71.81
2022-12-11T02:58:14.047Z,72.48
2022-12-11T03:00:40.651Z,71.67
2022-12-11T03:03:07.173Z,71.67
2022-12-11T03:05:33.669Z,71.61
2022-12-11T03:08:00.134Z,71.36
2022-12-11T03:10:26.597Z,71.49
2022-12-11T03:12:55.814Z,71.98
2022-12-11T03:15:24.059Z,71.82
2022-12-11T03:18:10.625Z,72.15
2022-12-11T03:21:03.669Z,72.21
2022-12-11T03:24:04.071Z,72.32
2022-12-11T03:26:33.103Z,72.04
2022-12-11T03:29:04.999Z,70.97
2022-12-11T03:31:40.098Z,71.54
2022-12-11T03:34:12.394Z,71.58
2022-12-11T03:36:39.461Z,71.56
2022-12-11T03:39:09.314Z,72.43
2022-12-11T03:41:37.446Z,72.35
2022-12-11T03:44:04.134Z,72.25
2022-12-11T03:46:33.582Z,71.99
2022-12-11T03:49:06.059Z,71.47
2022-12-11T03:51:32.898Z,70.74
2022-12-11T03:53:59.854Z,70.87
2022-12-11T03:56:27.541Z,70.63
2022-12-11T03:58:54.258Z,71.12
2022-12-11T04:01:20.989Z,71.51
2022-12-11T04:03:47.459Z,71.32
2022-12-11T04:06:13.895Z,71.04
2022-12-11T04:08:40.287Z,71.30
2022-12-11T04:11:26.979Z,71.02
2022-12-11T04:14:11.858Z,70.52
2022-12-11T04:16:38.279Z,70.60
2022-12-11T04:19:23.846Z,70.42
2022-12-11T04:22:08.874Z,70.38
2022-12-11T04:24:35.783Z,70.82
2022-12-11T04:27:02.214Z,70.56
2022-12-11T04:29:28.658Z,70.16
2022-12-11T04:31:55.077Z,70.55
2022-12-11T04:34:21.537Z,70.47
2022-12-11T04:36:47.939Z,70.94
2022-12-11T04:39:14.507Z,70.68
2022-12-11T04:41:41.527Z,70.21
2022-12-11T04:44:08.348Z,70.31
2022-12-11T04:46:35.503Z,70.69
2022-12-11T04:49:02.023Z,70.01
2022-12-11T04:51:28.753Z,70.01
2022-12-11T04:53:55.528Z,69.86
2022-12-11T04:56:22.052Z,70.32
2022-12-11T04:58:48.501Z,70.04
2022-12-11T05:01:17.893Z,70.83
2022-12-11T05:03:44.378Z,70.79
2022-12-11T05:06:11.713Z,70.87
2022-12-11T05:08:40.259Z,71.36
2022-12-11T05:11:10.063Z,72.35
2022-12-11T05:13:36.560Z,72.15
2022-12-11T05:16:08.628Z,72.20
2022-12-11T05:18:35.240Z,71.74
2022-12-11T05:21:06.601Z,72.67
2022-12-11T05:23:33.658Z,73.10
2022-12-11T05:26:02.219Z,72.92
2022-12-11T05:28:33.546Z,72.54
2022-12-11T05:31:09.155Z,72.87
2022-12-11T05:33:35.610Z,72.64
2022-12-11T05:36:02.637Z,72.46
2022-12-11T05:38:29.073Z,73.22
2022-12-11T05:41:00.488Z,72.80
2022-12-11T05:43:28.265Z,72.62
2022-12-11T05:45:55.022Z,72.65
2022-12-11T05:48:21.731Z,72.01
2022-12-11T05:50:58.680Z,72.12
2022-12-11T05:53:25.598Z,71.98
2022-12-11T05:55:52.194Z,72.31
2022-12-11T05:58:18.897Z,72.35
2022-12-11T06:00:45.376Z,72.17
2022-12-11T06:03:11.914Z,71.71
2022-12-11T06:05:39.673Z,71.81
2022-12-11T06:08:06.308Z,71.28
2022-12-11T06:10:32.821Z,71.61
2022-12-11T06:12:59.351Z,71.66
2022-12-11T06:15:25.816Z,71.61
2022-12-11T06:17:52.216Z,71.03
2022-12-11T06:20:18.687Z,71.50
2022-12-11T06:22:45.098Z,71.43
2022-12-11T06:25:11.789Z,71.40
2022-12-11T06:27:38.343Z,71.29
2022-12-11T06:30:05.071Z,71.09
2022-12-11T06:32:31.505Z,70.88
2022-12-11T06:34:57.921Z,70.92
2022-12-11T06:37:24.349Z,71.45
2022-12-11T06:39:50.757Z,70.49
2022-12-11T06:42:17.506Z,70.65
2022-12-11T06:44:43.917Z,70.91
2022-12-11T06:47:10.597Z,70.72
2022-12-11T06:49:37.007Z,71.16
2022-12-11T06:52:03.497Z,71.18
2022-12-11T06:54:29.911Z,71.15
2022-12-11T06:56:56.324Z,71.37
2022-12-11T06:59:22.820Z,71.37
2022-12-11T07:01:49.332Z,70.91
2022-12-11T07:04:15.876Z,71.28
2022-12-11T07:06:42.298Z,71.25
2022-12-11T07:09:08.738Z,71.71
2022-12-11T07:11:35.178Z,71.94
2022-12-11T07:14:01.685Z,72.08
2022-12-11T07:16:28.164Z,71.76
2022-12-11T07:18:54.604Z,71.87
2022-12-11T07:21:21.183Z,71.86
2022-12-11T07:23:48.647Z,71.42
2022-12-11T07:26:17.321Z,71.01
2022-12-11T07:28:43.836Z,71.45
2022-12-11T07:31:13.131Z,71.53
2022-12-11T07:33:39.897Z,72.14
2022-12-11T07:36:07.853Z,72.56
2022-12-11T07:38:34.402Z,72.04
2022-12-11T07:41:06.089Z,72.54
2022-12-11T07:43:33.606Z,72.06
2022-12-11T07:46:08.460Z,72.41
2022-12-11T07:48:36.184Z,71.91
2022-12-11T07:51:24.983Z,71.52
2022-12-11T07:53:51.418Z,71.46
2022-12-11T07:56:18.669Z,71.40
2022-12-11T07:58:45.395Z,71.59
2022-12-11T08:01:13.791Z,71.36
2022-12-11T08:03:40.506Z,71.44
2022-12-11T08:06:07.039Z,71.20
2022-12-11T08:08:33.450Z,71.18
2022-12-11T08:11:04.502Z,71.59
2022-12-11T08:13:31.417Z,71.66
2022-12-11T08:15:58.092Z,71.50
2022-12-11T08:18:24.499Z,71.59
2022-12-11T08:20:51.006Z,71.44
2022-12-11T08:23:17.488Z,70.95
2022-12-11T08:25:43.904Z,70.83
2022-12-11T08:28:10.313Z,71.19
2022-12-11T08:30:39.094Z,71.14
2022-12-11T08:33:06.549Z,70.99
2022-12-11T08:35:33.319Z,70.98
2022-12-11T08:37:59.749Z,70.95
2022-12-11T08:40:26.238Z,71.18
2022-12-11T08:42:52.633Z,71.12
2022-12-11T08:45:19.066Z,71.31
2022-12-11T08:47:45.491Z,71.23
2022-12-11T08:50:11.896Z,71.48
2022-12-11T08:52:38.322Z,71.22
2022-12-11T08:55:05.076Z,71.79
2022-12-11T08:57:31.459Z,71.93
2022-12-11T08:59:57.922Z,71.66
2022-12-11T09:02:24.347Z,71.79
2022-12-11T09:04:50.884Z,71.67
2022-12-11T09:07:17.308Z,71.59
2022-12-11T09:09:43.722Z,70.82
2022-12-11T09:12:10.137Z,70.67
2022-12-11T09:14:36.648Z,71.17
2022-12-11T09:17:05.327Z,71.36
2022-12-11T09:19:32.529Z,71.00
2022-12-11T09:21:59.238Z,71.26
2022-12-11T09:24:25.670Z,70.96
2022-12-11T09:26:52.063Z,70.94
2022-12-11T09:29:18.486Z,71.06
2022-12-11T09:31:46.390Z,70.96
2022-12-11T09:34:13.511Z,70.83
2022-12-11T09:36:41.140Z,71.58
2022-12-11T09:39:08.813Z,72.13
2022-12-11T09:41:36.952Z,71.67
2022-12-11T09:44:18.151Z,71.00
2022-12-11T09:46:45.316Z,71.30
2022-12-11T09:49:26.459Z,71.27
2022-12-11T09:52:14.040Z,71.75
2022-12-11T09:55:00.414Z,71.36
2022-12-11T09:57:52.886Z,70.76
2022-12-11T10:00:30.495Z,70.12
2022-12-11T10:03:12.049Z,70.09
2022-12-11T10:05:49.517Z,70.37
2022-12-11T10:08:55.360Z,70.49
2022-12-11T10:11:35.185Z,70.04
2022-12-11T10:14:10.589Z,70.49
2022-12-11T10:16:47.393Z,70.75
2022-12-11T10:19:27.562Z,70.91
2022-12-11T10:21:54.923Z,70.63
2022-12-11T10:27:33.686Z,70.20
2022-12-11T10:30:07.585Z,69.98
2022-12-11T10:33:16.044Z,70.85
2022-12-11T10:35:46.029Z,70.24
2022-12-11T10:38:25.555Z,69.60
2022-12-11T10:40:55.254Z,69.92
2022-12-11T10:43:32.734Z,69.85
2022-12-11T10:45:59.328Z,69.85
2022-12-11T10:48:25.818Z,69.98
2022-12-11T10:50:58.544Z,69.98
2022-12-11T10:53:25.773Z,69.77
2022-12-11T10:55:52.449Z,69.93
2022-12-11T10:58:24.273Z,70.32
2022-12-11T11:01:23.594Z,70.33
2022-12-11T11:04:07.548Z,69.84
2022-12-11T11:06:34.147Z,70.55
2022-12-11T11:09:01.635Z,70.52
2022-12-11T11:11:34.266Z,70.39
2022-12-11T11:14:09.974Z,70.72
2022-12-11T11:16:37.787Z,70.07
2022-12-11T11:19:04.343Z,70.46
2022-12-11T11:21:31.806Z,70.00
2022-12-11T11:23:58.285Z,69.53
2022-12-11T11:26:30.777Z,69.46
2022-12-11T11:29:23.102Z,70.00
2022-12-11T11:31:49.575Z,69.83
2022-12-11T11:34:21.017Z,69.12
2022-12-11T11:36:57.515Z,69.22
2022-12-11T11:39:36.097Z,68.70
2022-12-11T11:42:15.441Z,69.70
2022-12-11T11:45:03.822Z,69.52
2022-12-11T11:47:38.443Z,69.43
2022-12-11T11:50:28.276Z,69.58
2022-12-11T11:53:03.158Z,70.07
2022-12-11T11:55:43.097Z,70.13
2022-12-11T11:58:13.877Z,69.51
2022-12-11T12:00:40.340Z,69.21
2022-12-11T12:03:20.844Z,69.56
2022-12-11T12:06:18.867Z,69.30
2022-12-11T12:09:01.093Z,69.37
2022-12-11T12:11:27.469Z,69.05
2022-12-11T12:14:03.446Z,69.08
2022-12-11T12:17:14.244Z,69.08
2022-12-11T12:19:55.537Z,69.15
2022-12-11T12:22:28.049Z,69.11
2022-12-11T12:25:17.195Z,69.03
2022-12-11T12:27:52.854Z,69.54
2022-12-11T12:30:22.810Z,68.89
2022-12-11T12:33:05.737Z,68.52
2022-12-11T12:35:37.310Z,68.09
2022-12-11T12:38:25.434Z,68.39
2022-12-11T12:41:04.855Z,68.57
2022-12-11T12:43:47.782Z,68.21
2022-12-11T12:46:34.195Z,68.69
2022-12-11T12:49:01.539Z,68.67
2022-12-11T12:51:28.399Z,68.39
2022-12-11T12:53:58.110Z,68.83
2022-12-11T12:56:26.293Z,68.67
2022-12-11T12:58:52.703Z,69.27
2022-12-11T13:01:24.482Z,69.10
2022-12-11T13:04:01.638Z,68.42
2022-12-11T13:06:50.078Z,69.21
2022-12-11T13:09:26.471Z,69.68
2022-12-11T13:11:57.549Z,69.73
2022-12-11T13:14:32.631Z,69.30
2022-12-11T13:17:34.620Z,68.84
2022-12-11T13:20:28.438Z,69.17
2022-12-11T13:23:05.999Z,68.99
2022-12-11T13:25:37.445Z,69.13
2022-12-11T13:28:22.000Z,69.06
2022-12-11T13:31:14.385Z,69.61
2022-12-11T13:33:48.028Z,68.91
2022-12-11T13:36:24.574Z,69.52
2022-12-11T13:38:55.245Z,69.26
2022-12-11T13:41:21.728Z,69.34
2022-12-11T13:43:49.354Z,69.00
2022-12-11T13:46:21.353Z,69.31
2022-12-11T13:48:51.645Z,69.51
2022-12-11T13:51:21.069Z,69.11
2022-12-11T13:53:47.538Z,69.31
2022-12-11T13:56:19.931Z,70.23
2022-12-11T13:58:47.151Z,70.03
2022-12-11T14:01:32.953Z,70.01
2022-12-11T14:04:03.331Z,70.29
2022-12-11T14:06:30.821Z,70.46
2022-12-11T14:08:59.937Z,70.04
2022-12-11T14:11:31.340Z,70.28
2022-12-11T14:13:59.950Z,70.31
2022-12-11T14:16:27.537Z,70.11
2022-12-11T14:18:55.790Z,70.68
2022-12-11T14:21:24.556Z,70.63
2022-12-11T14:23:55.361Z,70.66
2022-12-11T14:26:26.831Z,70.55
2022-12-11T14:28:53.627Z,70.52
2022-12-11T14:31:37.465Z,70.44
2022-12-11T14:34:09.097Z,70.94
2022-12-11T14:36:35.999Z,70.63
2022-12-11T14:39:06.926Z,70.80
2022-12-11T14:41:39.293Z,70.64
2022-12-11T14:44:07.083Z,70.95
2022-12-11T14:46:50.511Z,70.80
2022-12-11T14:49:24.852Z,70.90
2022-12-11T14:51:53.572Z,71.10
2022-12-11T14:54:29.835Z,71.49
2022-12-11T14:56:56.765Z,71.65
2022-12-11T14:59:30.159Z,71.81
2022-12-11T15:02:00.588Z,71.91
2022-12-11T15:04:30.331Z,72.59
2022-12-11T15:06:57.347Z,72.48
2022-12-11T15:09:35.565Z,72.41
2022-12-11T15:12:28.097Z,73.03
2022-12-11T15:15:00.865Z,73.50
2022-12-11T15:17:27.760Z,74.06
2022-12-11T15:19:56.788Z,74.79
2022-12-11T15:22:25.227Z,75.24
2022-12-11T15:24:53.083Z,75.69
2022-12-11T15:27:49.346Z,75.60
2022-12-11T15:30:15.793Z,75.27
2022-12-11T15:32:42.205Z,75.00
2022-12-11T15:35:26.455Z,75.82
2022-12-11T15:37:54.287Z,75.34
2022-12-11T15:40:20.970Z,74.68
2022-12-11T15:42:47.535Z,74.23
2022-12-11T15:45:19.835Z,74.27
2022-12-11T15:47:47.455Z,74.03
2022-12-11T15:50:28.255Z,73.85
2022-12-11T15:52:55.911Z,73.38
2022-12-11T15:55:23.962Z,73.27
2022-12-11T15:57:56.212Z,73.37
2022-12-11T16:00:24.039Z,72.96
2022-12-11T16:02:51.571Z,73.37
2022-12-11T16:05:18.138Z,73.31
2022-12-11T16:07:44.760Z,73.33
2022-12-11T16:10:14.712Z,73.20
2022-12-11T16:12:41.998Z,73.93
2022-12-11T16:15:09.082Z,74.50
2022-12-11T16:17:35.793Z,74.45
2022-12-11T16:20:02.273Z,74.28
2022-12-11T16:22:28.695Z,74.54
2022-12-11T16:24:55.739Z,74.28
2022-12-11T16:27:23.395Z,74.99
2022-12-11T16:29:50.684Z,74.75
2022-12-11T16:32:17.196Z,74.72
2022-12-11T16:34:43.696Z,75.09
2022-12-11T16:37:10.417Z,75.16
2022-12-11T16:39:37.809Z,75.29
2022-12-11T16:42:05.740Z,75.42
2022-12-11T16:44:32.592Z,75.52
2022-12-11T16:46:59.013Z,75.83
2022-12-11T16:49:25.447Z,75.87
2022-12-11T16:51:51.860Z,75.73
2022-12-11T16:54:18.438Z,75.80
2022-12-11T16:56:45.026Z,76.67
2022-12-11T16:59:12.764Z,76.11
2022-12-11T17:01:39.298Z,77.17
2022-12-11T17:04:05.751Z,77.37
2022-12-11T17:06:32.817Z,78.01
2022-12-11T17:08:59.229Z,77.84
2022-12-11T17:11:26.150Z,78.05
2022-12-11T17:13:54.801Z,77.89
2022-12-11T17:16:22.332Z,78.39
2022-12-11T17:18:48.777Z,78.27
2022-12-11T17:21:17.763Z,78.29
2022-12-11T17:23:44.527Z,78.72
2022-12-11T17:26:11.326Z,78.53
2022-12-11T17:28:38.377Z,78.54
2022-12-11T17:31:10.131Z,78.41
2022-12-11T17:33:36.667Z,79.03
2022-12-11T17:36:05.047Z,78.94
2022-12-11T17:38:31.560Z,78.68
2022-12-11T17:40:58.262Z,79.33
2022-12-11T17:43:24.877Z,79.14
2022-12-11T17:45:52.551Z,78.98
2022-12-11T17:48:19.710Z,78.99
2022-12-11T17:50:47.153Z,78.99
2022-12-11T17:53:15.352Z,79.33
2022-12-11T17:55:42.801Z,79.11
2022-12-11T17:58:14.932Z,78.69
2022-12-11T18:00:43.802Z,78.79
2022-12-11T18:03:10.925Z,78.94
2022-12-11T18:05:42.542Z,79.21
2022-12-11T18:08:09.187Z,79.33
2022-12-11T18:10:36.668Z,79.25
2022-12-11T18:13:03.468Z,79.17
2022-12-11T18:15:29.886Z,79.62
2022-12-11T18:17:59.589Z,79.46
2022-12-11T18:20:26.448Z,79.50
2022-12-11T18:22:53.284Z,79.62
2022-12-11T18:25:19.808Z,79.42
2022-12-11T18:27:46.473Z,79.78
2022-12-11T18:30:16.265Z,79.97
2022-12-11T18:32:44.458Z,79.66
2022-12-11T18:35:11.790Z,79.91
2022-12-11T18:37:38.472Z,80.08
2022-12-11T18:40:05.507Z,79.86
2022-12-11T18:42:33.390Z,79.76
2022-12-11T18:45:00.368Z,79.49
2022-12-11T18:47:26.800Z,79.79
2022-12-11T18:49:53.804Z,79.87
2022-12-11T18:52:20.329Z,79.98
2022-12-11T18:54:47.415Z,79.98
2022-12-11T18:57:13.811Z,80.42
2022-12-11T18:59:41.004Z,80.55
2022-12-11T19:02:07.923Z,80.60
2022-12-11T19:04:36.075Z,80.65
2022-12-11T19:07:02.620Z,81.02
2022-12-11T19:09:31.660Z,80.71
2022-12-11T19:12:02.053Z,80.90
2022-12-11T19:14:28.473Z,81.11
2022-12-11T19:16:55.273Z,80.64
2022-12-11T19:19:22.332Z,80.52
2022-12-11T19:21:49.366Z,80.98
2022-12-11T19:24:19.905Z,80.95
2022-12-11T19:26:46.413Z,80.63
2022-12-11T19:29:20.451Z,80.41
2022-12-11T19:31:46.949Z,80.34
2022-12-11T19:34:13.406Z,80.09
2022-12-11T19:36:39.825Z,80.02
2022-12-11T19:39:12.654Z,79.94
2022-12-11T19:41:40.237Z,79.62
2022-12-11T19:44:06.813Z,79.25
2022-12-11T19:46:33.648Z,79.14
2022-12-11T19:49:00.528Z,79.30
2022-12-11T19:51:33.754Z,79.29
2022-12-11T19:54:02.751Z,79.12
2022-12-11T19:56:29.697Z,79.15
2022-12-11T19:58:56.322Z,78.82
2022-12-11T20:01:30.074Z,78.59
2022-12-11T20:03:59.585Z,79.15
2022-12-11T20:06:30.896Z,78.91
2022-12-11T20:08:58.139Z,78.54
2022-12-11T20:11:24.639Z,78.54
2022-12-11T20:13:51.286Z,78.68
2022-12-11T20:16:33.386Z,78.76
2022-12-11T20:19:05.454Z,77.85
2022-12-11T20:21:31.949Z,78.49
2022-12-11T20:23:58.441Z,78.40
2022-12-11T20:26:25.371Z,78.23
2022-12-11T20:28:52.506Z,78.45
2022-12-11T20:31:23.965Z,78.33
2022-12-11T20:33:52.245Z,78.26
2022-12-11T20:36:20.546Z,78.63
2022-12-11T20:38:47.077Z,78.50
2022-12-11T20:41:15.728Z,78.48
2022-12-11T20:43:42.341Z,78.12
2022-12-11T20:46:11.760Z,78.50
2022-12-11T20:48:39.093Z,78.02
2022-12-11T20:51:07.752Z,77.98
2022-12-11T20:53:34.917Z,78.37
2022-12-11T20:56:01.850Z,78.10
2022-12-11T20:58:28.341Z,77.91
2022-12-11T21:00:54.974Z,78.16
2022-12-11T21:03:21.431Z,77.80
2022-12-11T21:05:47.823Z,78.21
2022-12-11T21:08:14.411Z,77.86
2022-12-11T21:10:42.384Z,78.14
2022-12-11T21:13:09.217Z,78.09
2022-12-11T21:15:36.743Z,78.34
2022-12-11T21:18:03.283Z,78.49
2022-12-11T21:20:29.948Z,78.41
2022-12-11T21:22:57.496Z,78.46
2022-12-11T21:25:24.758Z,78.08
2022-12-11T21:27:51.164Z,77.80
2022-12-11T21:30:17.825Z,78.21
2022-12-11T21:32:44.316Z,77.96
2022-12-11T21:35:11.803Z,78.53
2022-12-11T21:37:40.162Z,77.93
2022-12-11T21:40:07.017Z,78.46
2022-12-11T21:42:33.441Z,78.07
2022-12-11T21:45:52.179Z,78.10
2022-12-11T21:47:46.409Z,78.39
2022-12-11T21:50:12.851Z,78.07
2022-12-11T21:52:40.816Z,78.50
2022-12-11T21:55:07.378Z,78.06
2022-12-11T21:57:33.812Z,77.92
2022-12-11T22:00:00.258Z,77.97
2022-12-11T22:02:26.734Z,77.75
2022-12-11T22:04:53.262Z,77.94
2022-12-11T22:07:19.666Z,78.26
2022-12-11T22:09:46.069Z,77.85
2022-12-11T22:12:23.376Z,77.54
2022-12-11T22:14:50.007Z,77.74
2022-12-11T22:17:18.116Z,77.99
2022-12-11T22:19:45.574Z,78.54
2022-12-11T22:22:12.389Z,78.76
2022-12-11T22:24:39.672Z,78.86
2022-12-11T22:27:06.340Z,78.77
2022-12-11T22:29:32.945Z,79.31
2022-12-11T22:31:59.369Z,79.11
2022-12-11T22:34:25.790Z,78.53
2022-12-11T22:36:52.295Z,78.48
2022-12-11T22:39:18.777Z,78.28
2022-12-11T22:41:45.174Z,78.36
2022-12-11T22:44:17.977Z,78.26
2022-12-11T22:46:49.871Z,78.29
2022-12-11T22:49:18.162Z,78.41
2022-12-11T22:51:44.636Z,78.52
2022-12-11T22:54:11.387Z,78.41
2022-12-11T22:56:38.433Z,78.58
2022-12-11T22:59:04.845Z,78.29
2022-12-11T23:01:31.295Z,78.58
2022-12-11T23:03:57.762Z,78.39
2022-12-11T23:06:24.845Z,78.62
2022-12-11T23:08:52.709Z,78.75
2022-12-11T23:11:31.793Z,78.42
2022-12-11T23:13:58.238Z,78.75
2022-12-11T23:16:25.763Z,78.43
2022-12-11T23:18:52.992Z,78.62
2022-12-11T23:21:20.049Z,78.81
2022-12-11T23:23:46.514Z,79.10
2022-12-11T23:26:13.748Z,78.73
2022-12-11T23:28:40.671Z,78.84
2022-12-11T23:31:07.827Z,78.92
2022-12-11T23:33:34.321Z,79.06
2022-12-11T23:36:00.823Z,79.00
2022-12-11T23:38:27.274Z,79.07
2022-12-11T23:40:53.788Z,79.05
2022-12-11T23:43:20.218Z,79.45
2022-12-11T23:45:46.805Z,78.80
2022-12-11T23:48:13.752Z,79.06
2022-12-11T23:50:41.394Z,78.66
2022-12-11T23:53:07.937Z,78.94
2022-12-11T23:55:34.481Z,78.92
2022-12-11T23:58:00.933Z,79.14
